Taylor Mines, Kentucky
Current Conditions -  °F | °C
As of 1:55 PM on Friday 24 Oct 2014 (Local Time) from K2I0 Reporting Station
Scattered Clouds Scattered Clouds  
Wind Chill: 69°   Ceiling: Unl
Heat Index: 69°   Visibility: 10mi
Dew Point: 48°   Wind: 0mph
Humidity: 48%   Direction: NA
Pressure: 30.08"   Gusts: NA
Location:  37.3559°N, 86.8747°W
Report Text: K2I0 241855Z AUTO 00000KT 10SM SCT040 21/09 A3008 RMK AO2 T02050090
Loading
Personal Weather Stations






























Interactive Weather Map
Tropical Storm Tracking
New forecast layout! Learn more

10-Day Weather Forecast

Advertisements
Track Severe Weather on mobile